ADC007 SKCC-SKBG
Flight info
| Callsign | ADC007 |
|---|---|
| Flight time | N/A |
| Altitude | 16000 |
| Route | TORAT1K TORAT TORAT1R |
| Aircraft | C208/L-SDFGR/C |
Departure
| Time | 2026-04-17 13:15 |
|---|---|
| Airport | Camilo Daza International Airport (SKCC) |
Arrival
| Time | N/A |
|---|---|
| Airport | Palonegro Airport (SKBG) |
| Time | Latitude | Longitude | Altitude | Speed | Heading |
|---|---|---|---|---|---|
| 2026-04-17 13:06 | 7.92875 | -72.50884 | 1022 ft | 0 kts | 21° |
| 2026-04-17 13:08 | 7.92878 | -72.50883 | 995 ft | 4 kts | 18° |
| 2026-04-17 13:08 | 7.92873 | -72.50858 | 1022 ft | 5 kts | 192° |
| 2026-04-17 13:08 | 7.92835 | -72.50909 | 1023 ft | 10 kts | 230° |
| 2026-04-17 13:09 | 7.92786 | -72.50982 | 1024 ft | 12 kts | 243° |
| 2026-04-17 13:09 | 7.92818 | -72.51045 | 1024 ft | 12 kts | 330° |
| 2026-04-17 13:09 | 7.92827 | -72.51050 | 1024 ft | 0 kts | 330° |
| 2026-04-17 13:10 | 7.92832 | -72.51053 | 1024 ft | 5 kts | 328° |
| 2026-04-17 13:10 | 7.92895 | -72.51094 | 1024 ft | 14 kts | 280° |
| 2026-04-17 13:10 | 7.92835 | -72.51129 | 1025 ft | 14 kts | 199° |
| 2026-04-17 13:11 | 7.92759 | -72.51155 | 1026 ft | 19 kts | 197° |
| 2026-04-17 13:11 | 7.92532 | -72.51220 | 1027 ft | 15 kts | 195° |
| 2026-04-17 13:11 | 7.92425 | -72.51258 | 1030 ft | 23 kts | 193° |
| 2026-04-17 13:11 | 7.92236 | -72.51315 | 1038 ft | 33 kts | 198° |
| 2026-04-17 13:12 | 7.92017 | -72.51383 | 1046 ft | 36 kts | 198° |
| 2026-04-17 13:12 | 7.91788 | -72.51430 | 1053 ft | 15 kts | 215° |
| 2026-04-17 13:12 | 7.91811 | -72.51447 | 1052 ft | 3 kts | 18° |
| 2026-04-17 13:13 | 7.91813 | -72.51446 | 1052 ft | 0 kts | 16° |
| 2026-04-17 13:13 | 7.91819 | -72.51444 | 1052 ft | 6 kts | 18° |
| 2026-04-17 13:13 | 7.91959 | -72.51400 | 1048 ft | 44 kts | 17° |
| 2026-04-17 13:14 | 7.92421 | -72.51257 | 1030 ft | 92 kts | 17° |
| 2026-04-17 13:14 | 7.93093 | -72.51036 | 1174 ft | 102 kts | 16° |
| 2026-04-17 13:14 | 7.93755 | -72.50830 | 1447 ft | 98 kts | 6° |
| 2026-04-17 13:14 | 7.94435 | -72.50741 | 1671 ft | 101 kts | 6° |
| 2026-04-17 13:15 | 7.95138 | -72.50548 | 1842 ft | 107 kts | 19° |
| 2026-04-17 13:15 | 7.95856 | -72.50350 | 2096 ft | 110 kts | 360° |
| 2026-04-17 13:15 | 7.96627 | -72.50423 | 2436 ft | 112 kts | 353° |
| 2026-04-17 13:15 | 7.97438 | -72.50469 | 2627 ft | 120 kts | 354° |
| 2026-04-17 13:16 | 7.98283 | -72.50529 | 2841 ft | 123 kts | 354° |
| 2026-04-17 13:16 | 7.99152 | -72.50594 | 3058 ft | 127 kts | 353° |
| 2026-04-17 13:16 | 8.00037 | -72.50660 | 3274 ft | 128 kts | 353° |
| 2026-04-17 13:16 | 8.00938 | -72.50728 | 3491 ft | 130 kts | 353° |
| 2026-04-17 13:17 | 8.01836 | -72.50798 | 3688 ft | 132 kts | 354° |
| 2026-04-17 13:17 | 8.02756 | -72.50868 | 3915 ft | 133 kts | 353° |
| 2026-04-17 13:17 | 8.03681 | -72.50938 | 4147 ft | 133 kts | 354° |
| 2026-04-17 13:17 | 8.04611 | -72.51007 | 4412 ft | 134 kts | 354° |
| 2026-04-17 13:18 | 8.05532 | -72.51078 | 4713 ft | 135 kts | 354° |
| 2026-04-17 13:18 | 8.06473 | -72.51150 | 5015 ft | 135 kts | 354° |
| 2026-04-17 13:18 | 8.07413 | -72.51221 | 5309 ft | 135 kts | 354° |
| 2026-04-17 13:18 | 8.08357 | -72.51294 | 5595 ft | 136 kts | 354° |
| 2026-04-17 13:19 | 8.09289 | -72.51366 | 5887 ft | 136 kts | 354° |
| 2026-04-17 13:19 | 8.10231 | -72.51451 | 6140 ft | 136 kts | 355° |
| 2026-04-17 13:19 | 8.11178 | -72.51515 | 6418 ft | 135 kts | 348° |
| 2026-04-17 13:19 | 8.12117 | -72.51648 | 6659 ft | 136 kts | 348° |
| 2026-04-17 13:20 | 8.13055 | -72.51684 | 6869 ft | 137 kts | 1° |
| 2026-04-17 13:20 | 8.14003 | -72.51707 | 7196 ft | 136 kts | 355° |
| 2026-04-17 13:20 | 8.14946 | -72.51780 | 7524 ft | 136 kts | 354° |
| 2026-04-17 13:20 | 8.15892 | -72.51785 | 7727 ft | 137 kts | 9° |
| 2026-04-17 13:21 | 8.16799 | -72.51504 | 7910 ft | 136 kts | 25° |
| 2026-04-17 13:21 | 8.17576 | -72.50989 | 8093 ft | 135 kts | 41° |
| 2026-04-17 13:21 | 8.18184 | -72.50270 | 8265 ft | 135 kts | 57° |
| 2026-04-17 13:21 | 8.18569 | -72.49412 | 8443 ft | 134 kts | 74° |
| 2026-04-17 13:22 | 8.18700 | -72.48477 | 8623 ft | 135 kts | 89° |
| 2026-04-17 13:22 | 8.18567 | -72.47532 | 8808 ft | 138 kts | 105° |
| 2026-04-17 13:22 | 8.18166 | -72.46646 | 8992 ft | 141 kts | 122° |
| 2026-04-17 13:22 | 8.17520 | -72.45906 | 9175 ft | 143 kts | 139° |
| 2026-04-17 13:23 | 8.16668 | -72.45379 | 9358 ft | 144 kts | 156° |
| 2026-04-17 13:23 | 8.15695 | -72.45130 | 9540 ft | 144 kts | 173° |
| 2026-04-17 13:23 | 8.14696 | -72.45184 | 9721 ft | 144 kts | 191° |
| 2026-04-17 13:23 | 8.13739 | -72.45470 | 9914 ft | 143 kts | 195° |
| 2026-04-17 13:24 | 8.12792 | -72.45746 | 10092 ft | 144 kts | 195° |
| 2026-04-17 13:24 | 8.11825 | -72.46022 | 10270 ft | 144 kts | 194° |
| 2026-04-17 13:24 | 8.10858 | -72.46298 | 10452 ft | 143 kts | 195° |
| 2026-04-17 13:24 | 8.09901 | -72.46572 | 10639 ft | 142 kts | 195° |
| 2026-04-17 13:25 | 8.08950 | -72.46846 | 10821 ft | 141 kts | 195° |
| 2026-04-17 13:25 | 8.08014 | -72.47115 | 11004 ft | 142 kts | 195° |
| 2026-04-17 13:25 | 8.07058 | -72.47391 | 11194 ft | 143 kts | 195° |
| 2026-04-17 13:25 | 8.06097 | -72.47665 | 11383 ft | 144 kts | 195° |
| 2026-04-17 13:26 | 8.05134 | -72.47940 | 11569 ft | 144 kts | 195° |
| 2026-04-17 13:26 | 8.04169 | -72.48216 | 11758 ft | 144 kts | 195° |
| 2026-04-17 13:26 | 8.03214 | -72.48489 | 11944 ft | 144 kts | 195° |
| 2026-04-17 13:26 | 8.02251 | -72.48764 | 12140 ft | 143 kts | 195° |
| 2026-04-17 13:27 | 8.01295 | -72.49037 | 12321 ft | 141 kts | 195° |
| 2026-04-17 13:27 | 8.00352 | -72.49306 | 12510 ft | 140 kts | 195° |
| 2026-04-17 13:27 | 7.99422 | -72.49574 | 12695 ft | 139 kts | 195° |
| 2026-04-17 13:27 | 7.98495 | -72.49842 | 12884 ft | 138 kts | 195° |
| 2026-04-17 13:28 | 7.97583 | -72.50103 | 13074 ft | 137 kts | 195° |
| 2026-04-17 13:28 | 7.96666 | -72.50364 | 13272 ft | 136 kts | 195° |
| 2026-04-17 13:28 | 7.95751 | -72.50627 | 13467 ft | 137 kts | 195° |
| 2026-04-17 13:28 | 7.94833 | -72.50891 | 13662 ft | 137 kts | 195° |
| 2026-04-17 13:29 | 7.93915 | -72.51152 | 13855 ft | 136 kts | 197° |
| 2026-04-17 13:29 | 7.93110 | -72.51619 | 14002 ft | 135 kts | 227° |
| 2026-04-17 13:29 | 7.92569 | -72.52390 | 14173 ft | 134 kts | 234° |
| 2026-04-17 13:29 | 7.92039 | -72.53153 | 14349 ft | 134 kts | 233° |
| 2026-04-17 13:30 | 7.91504 | -72.53920 | 14523 ft | 133 kts | 234° |
| 2026-04-17 13:30 | 7.90973 | -72.54682 | 14700 ft | 132 kts | 234° |
| 2026-04-17 13:30 | 7.90447 | -72.55439 | 14877 ft | 131 kts | 234° |
| 2026-04-17 13:30 | 7.89932 | -72.56181 | 15054 ft | 130 kts | 234° |
| 2026-04-17 13:31 | 7.89415 | -72.56931 | 15236 ft | 130 kts | 234° |
| 2026-04-17 13:31 | 7.88896 | -72.57679 | 15416 ft | 130 kts | 234° |
| 2026-04-17 13:31 | 7.88375 | -72.58424 | 15597 ft | 130 kts | 233° |
| 2026-04-17 13:31 | 7.87854 | -72.59172 | 15782 ft | 130 kts | 234° |
| 2026-04-17 13:32 | 7.87334 | -72.59920 | 15967 ft | 130 kts | 234° |
| 2026-04-17 13:32 | 7.86789 | -72.60698 | 16002 ft | 142 kts | 234° |
| 2026-04-17 13:32 | 7.86207 | -72.61532 | 16019 ft | 152 kts | 234° |
| 2026-04-17 13:32 | 7.85583 | -72.62428 | 16012 ft | 159 kts | 234° |
| 2026-04-17 13:33 | 7.84936 | -72.63358 | 16010 ft | 164 kts | 234° |
| 2026-04-17 13:33 | 7.84273 | -72.64311 | 16018 ft | 167 kts | 234° |
| 2026-04-17 13:33 | 7.83599 | -72.65277 | 16018 ft | 169 kts | 234° |
| 2026-04-17 13:33 | 7.82918 | -72.66255 | 16010 ft | 170 kts | 234° |
| 2026-04-17 13:34 | 7.82247 | -72.67216 | 16026 ft | 169 kts | 234° |
| 2026-04-17 13:34 | 7.81572 | -72.68182 | 16022 ft | 168 kts | 234° |
| 2026-04-17 13:34 | 7.80898 | -72.69149 | 16018 ft | 167 kts | 234° |
| 2026-04-17 13:34 | 7.80238 | -72.70094 | 16017 ft | 167 kts | 234° |
| 2026-04-17 13:35 | 7.79568 | -72.71055 | 16020 ft | 166 kts | 234° |
| 2026-04-17 13:35 | 7.78903 | -72.72009 | 16025 ft | 166 kts | 234° |
| 2026-04-17 13:35 | 7.78237 | -72.72964 | 16023 ft | 166 kts | 234° |
| 2026-04-17 13:35 | 7.77570 | -72.73915 | 16028 ft | 166 kts | 234° |
| 2026-04-17 13:36 | 7.76912 | -72.74860 | 16027 ft | 166 kts | 234° |
| 2026-04-17 13:36 | 7.76243 | -72.75818 | 16033 ft | 166 kts | 234° |
| 2026-04-17 13:36 | 7.75572 | -72.76779 | 16030 ft | 168 kts | 234° |
| 2026-04-17 13:36 | 7.74894 | -72.77750 | 16033 ft | 169 kts | 234° |
| 2026-04-17 13:37 | 7.74220 | -72.78716 | 16035 ft | 171 kts | 234° |
| 2026-04-17 13:37 | 7.73534 | -72.79697 | 16038 ft | 171 kts | 234° |
| 2026-04-17 13:37 | 7.72843 | -72.80685 | 16038 ft | 172 kts | 234° |
| 2026-04-17 13:37 | 7.72154 | -72.81672 | 16044 ft | 172 kts | 234° |
| 2026-04-17 13:38 | 7.71470 | -72.82654 | 16050 ft | 169 kts | 234° |
| 2026-04-17 13:38 | 7.70794 | -72.83619 | 16002 ft | 171 kts | 234° |
| 2026-04-17 13:38 | 7.70113 | -72.84593 | 15998 ft | 169 kts | 234° |
| 2026-04-17 13:38 | 7.69435 | -72.85559 | 15994 ft | 168 kts | 234° |
| 2026-04-17 13:39 | 7.68764 | -72.86522 | 16008 ft | 168 kts | 234° |
| 2026-04-17 13:39 | 7.68092 | -72.87486 | 16009 ft | 167 kts | 234° |
| 2026-04-17 13:39 | 7.67431 | -72.88435 | 16010 ft | 167 kts | 234° |
| 2026-04-17 13:39 | 7.66763 | -72.89390 | 16008 ft | 167 kts | 234° |
| 2026-04-17 13:40 | 7.66094 | -72.90346 | 16014 ft | 165 kts | 234° |
| 2026-04-17 13:40 | 7.65431 | -72.91292 | 16016 ft | 165 kts | 234° |
| 2026-04-17 13:40 | 7.64769 | -72.92241 | 16013 ft | 165 kts | 234° |
| 2026-04-17 13:40 | 7.64105 | -72.93189 | 16018 ft | 166 kts | 234° |
| 2026-04-17 13:41 | 7.63437 | -72.94143 | 16014 ft | 166 kts | 234° |
| 2026-04-17 13:41 | 7.62764 | -72.95104 | 15991 ft | 168 kts | 234° |
| 2026-04-17 13:41 | 7.62102 | -72.96051 | 15990 ft | 167 kts | 234° |
| 2026-04-17 13:41 | 7.61431 | -72.97008 | 15996 ft | 167 kts | 234° |
| 2026-04-17 13:42 | 7.60761 | -72.97970 | 15994 ft | 166 kts | 234° |
| 2026-04-17 13:42 | 7.60091 | -72.98924 | 15988 ft | 167 kts | 234° |
| 2026-04-17 13:42 | 7.59423 | -72.99879 | 15995 ft | 167 kts | 234° |
| 2026-04-17 13:42 | 7.58758 | -73.00828 | 15994 ft | 168 kts | 234° |
| 2026-04-17 13:43 | 7.58083 | -73.01794 | 15993 ft | 168 kts | 234° |
| 2026-04-17 13:43 | 7.57409 | -73.02757 | 15995 ft | 168 kts | 234° |
| 2026-04-17 13:43 | 7.56734 | -73.03723 | 15995 ft | 168 kts | 234° |
| 2026-04-17 13:43 | 7.56056 | -73.04688 | 15993 ft | 169 kts | 234° |
| 2026-04-17 13:44 | 7.55378 | -73.05654 | 16003 ft | 168 kts | 234° |
| 2026-04-17 13:44 | 7.54712 | -73.06606 | 16003 ft | 167 kts | 234° |
| 2026-04-17 13:44 | 7.54043 | -73.07564 | 16001 ft | 167 kts | 234° |
| 2026-04-17 13:44 | 7.53377 | -73.08522 | 16005 ft | 165 kts | 234° |
| 2026-04-17 13:45 | 7.52712 | -73.09468 | 15964 ft | 166 kts | 234° |
| 2026-04-17 13:45 | 7.52045 | -73.10416 | 15965 ft | 165 kts | 234° |
| 2026-04-17 13:45 | 7.51378 | -73.11373 | 15964 ft | 167 kts | 234° |
| 2026-04-17 13:45 | 7.50704 | -73.12329 | 15965 ft | 167 kts | 234° |
| 2026-04-17 13:46 | 7.50038 | -73.13279 | 15963 ft | 168 kts | 234° |
| 2026-04-17 13:46 | 7.49362 | -73.14244 | 15962 ft | 168 kts | 234° |
| 2026-04-17 13:46 | 7.48686 | -73.15209 | 15965 ft | 168 kts | 234° |
| 2026-04-17 13:46 | 7.48012 | -73.16177 | 15964 ft | 168 kts | 234° |
| 2026-04-17 13:47 | 7.47335 | -73.17142 | 15967 ft | 168 kts | 234° |
| 2026-04-17 13:47 | 7.46601 | -73.18061 | 15975 ft | 169 kts | 220° |
| 2026-04-17 13:47 | 7.45546 | -73.18582 | 15986 ft | 172 kts | 194° |
| 2026-04-17 13:47 | 7.44382 | -73.18813 | 15982 ft | 173 kts | 192° |
| 2026-04-17 13:48 | 7.43205 | -73.19058 | 15978 ft | 172 kts | 192° |
| 2026-04-17 13:48 | 7.42028 | -73.19309 | 15972 ft | 172 kts | 192° |
| 2026-04-17 13:48 | 7.40860 | -73.19556 | 15974 ft | 171 kts | 192° |